sensor_id;sensor_type;location;lat;lon;timestamp;P1;durP1;ratioP1;P2;durP2;ratioP2
62523;SDS011;53689;56.878;60.672;2023-02-01T00:00:52;11.45;;;8.00;;
62523;SDS011;53689;56.878;60.672;2023-02-01T00:03:19;10.52;;;7.28;;
62523;SDS011;53689;56.878;60.672;2023-02-01T00:05:54;13.07;;;8.52;;
62523;SDS011;53689;56.878;60.672;2023-02-01T00:08:22;12.90;;;7.82;;
62523;SDS011;53689;56.878;60.672;2023-02-01T00:10:58;11.60;;;7.13;;
62523;SDS011;53689;56.878;60.672;2023-02-01T00:13:28;11.88;;;7.80;;
62523;SDS011;53689;56.878;60.672;2023-02-01T00:16:02;12.43;;;8.20;;
62523;SDS011;53689;56.878;60.672;2023-02-01T00:18:30;12.65;;;8.48;;
62523;SDS011;53689;56.878;60.672;2023-02-01T00:20:58;11.38;;;7.78;;
62523;SDS011;53689;56.878;60.672;2023-02-01T00:23:26;14.63;;;8.73;;
62523;SDS011;53689;56.878;60.672;2023-02-01T00:25:53;11.23;;;7.35;;
62523;SDS011;53689;56.878;60.672;2023-02-01T00:28:22;12.82;;;8.20;;
62523;SDS011;53689;56.878;60.672;2023-02-01T00:30:55;13.27;;;7.93;;
62523;SDS011;53689;56.878;60.672;2023-02-01T00:33:23;12.68;;;7.93;;
62523;SDS011;53689;56.878;60.672;2023-02-01T00:35:51;10.73;;;7.13;;
62523;SDS011;53689;56.878;60.672;2023-02-01T00:38:23;11.70;;;8.18;;
62523;SDS011;53689;56.878;60.672;2023-02-01T00:40:51;12.35;;;7.85;;
62523;SDS011;53689;56.878;60.672;2023-02-01T00:43:19;11.25;;;7.78;;
62523;SDS011;53689;56.878;60.672;2023-02-01T00:45:48;11.85;;;7.95;;
62523;SDS011;53689;56.878;60.672;2023-02-01T00:48:16;12.15;;;7.95;;
62523;SDS011;53689;56.878;60.672;2023-02-01T00:50:43;11.93;;;7.70;;
62523;SDS011;53689;56.878;60.672;2023-02-01T00:53:11;12.55;;;8.27;;
62523;SDS011;53689;56.878;60.672;2023-02-01T00:55:39;11.05;;;7.22;;
62523;SDS011;53689;56.878;60.672;2023-02-01T00:58:06;11.10;;;7.43;;
62523;SDS011;53689;56.878;60.672;2023-02-01T01:00:34;11.05;;;7.18;;
62523;SDS011;53689;56.878;60.672;2023-02-01T01:03:04;11.57;;;7.68;;
62523;SDS011;53689;56.878;60.672;2023-02-01T01:05:31;14.02;;;8.85;;
62523;SDS011;53689;56.878;60.672;2023-02-01T01:07:59;11.20;;;6.75;;
62523;SDS011;53689;56.878;60.672;2023-02-01T01:10:26;11.23;;;7.28;;
62523;SDS011;53689;56.878;60.672;2023-02-01T01:12:54;11.90;;;7.85;;
62523;SDS011;53689;56.878;60.672;2023-02-01T01:15:22;12.20;;;8.23;;
62523;SDS011;53689;56.878;60.672;2023-02-01T01:17:49;10.50;;;7.20;;
62523;SDS011;53689;56.878;60.672;2023-02-01T01:20:18;12.15;;;8.50;;
62523;SDS011;53689;56.878;60.672;2023-02-01T01:22:46;11.50;;;7.72;;
62523;SDS011;53689;56.878;60.672;2023-02-01T01:25:14;13.95;;;8.75;;
62523;SDS011;53689;56.878;60.672;2023-02-01T01:27:42;13.45;;;8.15;;
62523;SDS011;53689;56.878;60.672;2023-02-01T01:30:10;12.60;;;8.27;;
62523;SDS011;53689;56.878;60.672;2023-02-01T01:32:38;10.45;;;6.93;;
62523;SDS011;53689;56.878;60.672;2023-02-01T01:35:05;13.82;;;9.10;;
62523;SDS011;53689;56.878;60.672;2023-02-01T01:37:35;11.43;;;7.60;;
62523;SDS011;53689;56.878;60.672;2023-02-01T01:40:02;13.00;;;8.43;;
62523;SDS011;53689;56.878;60.672;2023-02-01T01:42:35;13.40;;;8.10;;
62523;SDS011;53689;56.878;60.672;2023-02-01T01:45:05;12.55;;;8.25;;
62523;SDS011;53689;56.878;60.672;2023-02-01T01:47:35;11.57;;;8.20;;
62523;SDS011;53689;56.878;60.672;2023-02-01T01:50:07;15.60;;;9.85;;
62523;SDS011;53689;56.878;60.672;2023-02-01T01:52:38;13.82;;;8.60;;
62523;SDS011;53689;56.878;60.672;2023-02-01T01:55:08;12.35;;;8.50;;
62523;SDS011;53689;56.878;60.672;2023-02-01T01:57:37;11.57;;;8.13;;
62523;SDS011;53689;56.878;60.672;2023-02-01T02:00:10;12.60;;;8.07;;
62523;SDS011;53689;56.878;60.672;2023-02-01T02:02:40;13.95;;;9.50;;
62523;SDS011;53689;56.878;60.672;2023-02-01T02:05:09;11.20;;;8.13;;
62523;SDS011;53689;56.878;60.672;2023-02-01T02:07:40;13.57;;;8.40;;
62523;SDS011;53689;56.878;60.672;2023-02-01T02:10:12;11.57;;;8.27;;
62523;SDS011;53689;56.878;60.672;2023-02-01T02:15:12;13.40;;;9.32;;
62523;SDS011;53689;56.878;60.672;2023-02-01T02:17:43;12.88;;;8.55;;
62523;SDS011;53689;56.878;60.672;2023-02-01T02:20:30;11.88;;;8.10;;
62523;SDS011;53689;56.878;60.672;2023-02-01T02:23:21;12.85;;;8.15;;
62523;SDS011;53689;56.878;60.672;2023-02-01T02:26:10;11.98;;;7.85;;
62523;SDS011;53689;56.878;60.672;2023-02-01T02:29:09;11.48;;;7.55;;
62523;SDS011;53689;56.878;60.672;2023-02-01T02:31:59;10.82;;;7.70;;
62523;SDS011;53689;56.878;60.672;2023-02-01T02:34:46;13.17;;;8.47;;
62523;SDS011;53689;56.878;60.672;2023-02-01T02:37:22;10.32;;;7.65;;
62523;SDS011;53689;56.878;60.672;2023-02-01T02:40:01;12.25;;;7.30;;
62523;SDS011;53689;56.878;60.672;2023-02-01T02:42:35;12.02;;;7.82;;
62523;SDS011;53689;56.878;60.672;2023-02-01T02:45:10;10.45;;;7.70;;
62523;SDS011;53689;56.878;60.672;2023-02-01T02:47:46;10.35;;;7.22;;
62523;SDS011;53689;56.878;60.672;2023-02-01T02:50:24;13.18;;;8.70;;
62523;SDS011;53689;56.878;60.672;2023-02-01T02:52:58;13.10;;;8.05;;
62523;SDS011;53689;56.878;60.672;2023-02-01T02:55:37;11.10;;;7.55;;
62523;SDS011;53689;56.878;60.672;2023-02-01T02:58:09;12.48;;;8.13;;
62523;SDS011;53689;56.878;60.672;2023-02-01T03:00:39;12.18;;;8.40;;
62523;SDS011;53689;56.878;60.672;2023-02-01T03:05:40;12.60;;;7.85;;
62523;SDS011;53689;56.878;60.672;2023-02-01T03:08:11;11.68;;;7.40;;
62523;SDS011;53689;56.878;60.672;2023-02-01T03:10:42;11.38;;;7.50;;
62523;SDS011;53689;56.878;60.672;2023-02-01T03:13:17;12.48;;;8.20;;
62523;SDS011;53689;56.878;60.672;2023-02-01T03:15:54;12.35;;;8.27;;
62523;SDS011;53689;56.878;60.672;2023-02-01T03:18:33;12.00;;;7.75;;
62523;SDS011;53689;56.878;60.672;2023-02-01T03:21:10;10.10;;;6.85;;
62523;SDS011;53689;56.878;60.672;2023-02-01T03:23:41;10.75;;;7.38;;
62523;SDS011;53689;56.878;60.672;2023-02-01T03:26:12;10.77;;;7.53;;
62523;SDS011;53689;56.878;60.672;2023-02-01T03:28:42;12.18;;;7.72;;
62523;SDS011;53689;56.878;60.672;2023-02-01T03:31:13;11.32;;;7.57;;
62523;SDS011;53689;56.878;60.672;2023-02-01T03:33:41;11.82;;;7.10;;
62523;SDS011;53689;56.878;60.672;2023-02-01T03:36:14;11.05;;;7.53;;
62523;SDS011;53689;56.878;60.672;2023-02-01T03:38:48;12.85;;;7.32;;
62523;SDS011;53689;56.878;60.672;2023-02-01T03:41:24;13.50;;;8.00;;
62523;SDS011;53689;56.878;60.672;2023-02-01T03:43:56;10.80;;;7.10;;
62523;SDS011;53689;56.878;60.672;2023-02-01T03:46:30;11.70;;;7.93;;
62523;SDS011;53689;56.878;60.672;2023-02-01T03:49:03;14.20;;;7.82;;
62523;SDS011;53689;56.878;60.672;2023-02-01T03:51:38;10.80;;;7.07;;
62523;SDS011;53689;56.878;60.672;2023-02-01T03:54:09;14.63;;;10.18;;
62523;SDS011;53689;56.878;60.672;2023-02-01T03:56:41;12.95;;;9.00;;
62523;SDS011;53689;56.878;60.672;2023-02-01T03:59:11;9.82;;;7.68;;
62523;SDS011;53689;56.878;60.672;2023-02-01T04:01:41;10.63;;;7.55;;
62523;SDS011;53689;56.878;60.672;2023-02-01T04:04:08;11.60;;;8.05;;
62523;SDS011;53689;56.878;60.672;2023-02-01T04:06:39;12.85;;;7.88;;
62523;SDS011;53689;56.878;60.672;2023-02-01T04:09:07;13.20;;;9.10;;
62523;SDS011;53689;56.878;60.672;2023-02-01T04:11:34;12.63;;;7.55;;
62523;SDS011;53689;56.878;60.672;2023-02-01T04:14:02;15.68;;;8.85;;
62523;SDS011;53689;56.878;60.672;2023-02-01T04:16:30;14.63;;;8.43;;
62523;SDS011;53689;56.878;60.672;2023-02-01T04:18:58;14.27;;;8.50;;
62523;SDS011;53689;56.878;60.672;2023-02-01T04:21:26;14.07;;;8.57;;
62523;SDS011;53689;56.878;60.672;2023-02-01T04:23:56;13.60;;;8.70;;
62523;SDS011;53689;56.878;60.672;2023-02-01T04:26:24;12.27;;;8.30;;
62523;SDS011;53689;56.878;60.672;2023-02-01T04:28:52;14.48;;;8.57;;
62523;SDS011;53689;56.878;60.672;2023-02-01T04:31:20;14.48;;;8.30;;
62523;SDS011;53689;56.878;60.672;2023-02-01T04:33:48;11.60;;;8.35;;
62523;SDS011;53689;56.878;60.672;2023-02-01T04:36:16;18.02;;;10.93;;
62523;SDS011;53689;56.878;60.672;2023-02-01T04:38:43;16.63;;;9.18;;
62523;SDS011;53689;56.878;60.672;2023-02-01T04:41:13;18.23;;;9.23;;
62523;SDS011;53689;56.878;60.672;2023-02-01T04:43:41;15.90;;;10.68;;
62523;SDS011;53689;56.878;60.672;2023-02-01T04:46:08;17.42;;;10.63;;
62523;SDS011;53689;56.878;60.672;2023-02-01T04:48:36;17.25;;;10.85;;
62523;SDS011;53689;56.878;60.672;2023-02-01T04:51:03;18.08;;;11.05;;
62523;SDS011;53689;56.878;60.672;2023-02-01T04:53:31;18.80;;;11.20;;
62523;SDS011;53689;56.878;60.672;2023-02-01T04:55:59;18.67;;;10.73;;
62523;SDS011;53689;56.878;60.672;2023-02-01T04:58:28;16.45;;;11.70;;
62523;SDS011;53689;56.878;60.672;2023-02-01T05:00:56;25.63;;;11.75;;
62523;SDS011;53689;56.878;60.672;2023-02-01T05:03:25;19.53;;;12.50;;
62523;SDS011;53689;56.878;60.672;2023-02-01T05:05:52;22.25;;;11.63;;
62523;SDS011;53689;56.878;60.672;2023-02-01T05:08:20;22.13;;;12.40;;
62523;SDS011;53689;56.878;60.672;2023-02-01T05:10:48;16.42;;;11.55;;
62523;SDS011;53689;56.878;60.672;2023-02-01T05:13:15;18.58;;;11.50;;
62523;SDS011;53689;56.878;60.672;2023-02-01T05:15:44;18.13;;;11.98;;
62523;SDS011;53689;56.878;60.672;2023-02-01T05:20:40;20.13;;;13.13;;
62523;SDS011;53689;56.878;60.672;2023-02-01T05:23:07;17.50;;;12.07;;
62523;SDS011;53689;56.878;60.672;2023-02-01T05:25:35;17.90;;;11.35;;
62523;SDS011;53689;56.878;60.672;2023-02-01T05:28:03;16.35;;;10.95;;
62523;SDS011;53689;56.878;60.672;2023-02-01T05:30:30;18.75;;;10.75;;
62523;SDS011;53689;56.878;60.672;2023-02-01T05:33:00;17.15;;;10.40;;
62523;SDS011;53689;56.878;60.672;2023-02-01T05:35:28;21.88;;;10.35;;
62523;SDS011;53689;56.878;60.672;2023-02-01T05:37:56;20.60;;;10.15;;
62523;SDS011;53689;56.878;60.672;2023-02-01T05:40:24;17.17;;;10.15;;
62523;SDS011;53689;56.878;60.672;2023-02-01T05:42:52;15.90;;;9.63;;
62523;SDS011;53689;56.878;60.672;2023-02-01T05:45:19;15.98;;;9.95;;
62523;SDS011;53689;56.878;60.672;2023-02-01T05:47:47;18.05;;;10.90;;
62523;SDS011;53689;56.878;60.672;2023-02-01T05:50:16;18.42;;;11.10;;
62523;SDS011;53689;56.878;60.672;2023-02-01T05:52:44;21.13;;;10.35;;
62523;SDS011;53689;56.878;60.672;2023-02-01T05:55:14;21.45;;;10.73;;
62523;SDS011;53689;56.878;60.672;2023-02-01T05:57:43;19.17;;;10.90;;
62523;SDS011;53689;56.878;60.672;2023-02-01T06:00:11;18.02;;;11.07;;
62523;SDS011;53689;56.878;60.672;2023-02-01T06:02:40;17.85;;;11.20;;
62523;SDS011;53689;56.878;60.672;2023-02-01T06:05:08;15.95;;;11.40;;
62523;SDS011;53689;56.878;60.672;2023-02-01T06:07:38;21.45;;;12.07;;
62523;SDS011;53689;56.878;60.672;2023-02-01T06:10:06;19.42;;;12.15;;
62523;SDS011;53689;56.878;60.672;2023-02-01T06:12:34;19.17;;;12.52;;
62523;SDS011;53689;56.878;60.672;2023-02-01T06:15:01;23.50;;;13.95;;
62523;SDS011;53689;56.878;60.672;2023-02-01T06:17:30;19.85;;;13.10;;
62523;SDS011;53689;56.878;60.672;2023-02-01T06:19:57;22.20;;;13.10;;
62523;SDS011;53689;56.878;60.672;2023-02-01T06:22:25;20.80;;;12.57;;
62523;SDS011;53689;56.878;60.672;2023-02-01T06:24:55;25.02;;;12.60;;
62523;SDS011;53689;56.878;60.672;2023-02-01T06:27:23;19.75;;;12.75;;
62523;SDS011;53689;56.878;60.672;2023-02-01T06:29:50;21.13;;;12.80;;
62523;SDS011;53689;56.878;60.672;2023-02-01T06:32:19;22.52;;;12.75;;
62523;SDS011;53689;56.878;60.672;2023-02-01T06:34:47;19.75;;;12.63;;
62523;SDS011;53689;56.878;60.672;2023-02-01T06:37:15;23.50;;;13.75;;
62523;SDS011;53689;56.878;60.672;2023-02-01T06:39:43;21.75;;;14.25;;
62523;SDS011;53689;56.878;60.672;2023-02-01T06:42:12;22.35;;;14.82;;
62523;SDS011;53689;56.878;60.672;2023-02-01T06:47:08;29.77;;;14.23;;
62523;SDS011;53689;56.878;60.672;2023-02-01T06:49:36;23.38;;;16.10;;
62523;SDS011;53689;56.878;60.672;2023-02-01T06:52:04;28.42;;;18.98;;
62523;SDS011;53689;56.878;60.672;2023-02-01T06:54:31;32.22;;;22.75;;
62523;SDS011;53689;56.878;60.672;2023-02-01T06:56:59;41.25;;;27.75;;
62523;SDS011;53689;56.878;60.672;2023-02-01T06:59:28;32.05;;;21.27;;
62523;SDS011;53689;56.878;60.672;2023-02-01T07:04:25;36.10;;;26.73;;
62523;SDS011;53689;56.878;60.672;2023-02-01T07:06:53;33.72;;;23.55;;
62523;SDS011;53689;56.878;60.672;2023-02-01T07:09:21;26.35;;;18.60;;
62523;SDS011;53689;56.878;60.672;2023-02-01T07:11:48;28.50;;;18.65;;
62523;SDS011;53689;56.878;60.672;2023-02-01T07:14:16;30.35;;;19.13;;
62523;SDS011;53689;56.878;60.672;2023-02-01T07:16:45;31.15;;;19.38;;
62523;SDS011;53689;56.878;60.672;2023-02-01T07:19:13;31.23;;;18.40;;
62523;SDS011;53689;56.878;60.672;2023-02-01T07:21:41;38.63;;;18.48;;
62523;SDS011;53689;56.878;60.672;2023-02-01T07:24:09;39.13;;;18.25;;
62523;SDS011;53689;56.878;60.672;2023-02-01T07:26:36;35.88;;;20.20;;
62523;SDS011;53689;56.878;60.672;2023-02-01T07:29:04;39.78;;;19.67;;
62523;SDS011;53689;56.878;60.672;2023-02-01T07:31:32;38.60;;;20.67;;
62523;SDS011;53689;56.878;60.672;2023-02-01T07:34:01;39.38;;;20.17;;
62523;SDS011;53689;56.878;60.672;2023-02-01T07:36:29;40.65;;;27.90;;
62523;SDS011;53689;56.878;60.672;2023-02-01T07:38:57;48.83;;;32.85;;
62523;SDS011;53689;56.878;60.672;2023-02-01T07:41:25;45.28;;;27.63;;
62523;SDS011;53689;56.878;60.672;2023-02-01T07:43:53;42.47;;;23.90;;
62523;SDS011;53689;56.878;60.672;2023-02-01T07:46:23;41.30;;;23.55;;
62523;SDS011;53689;56.878;60.672;2023-02-01T07:48:50;39.75;;;22.58;;
62523;SDS011;53689;56.878;60.672;2023-02-01T07:51:19;38.03;;;22.27;;
62523;SDS011;53689;56.878;60.672;2023-02-01T07:53:47;39.15;;;24.15;;
62523;SDS011;53689;56.878;60.672;2023-02-01T07:56:15;45.88;;;25.20;;
62523;SDS011;53689;56.878;60.672;2023-02-01T08:01:14;41.20;;;24.13;;
62523;SDS011;53689;56.878;60.672;2023-02-01T08:03:43;41.13;;;24.10;;
62523;SDS011;53689;56.878;60.672;2023-02-01T08:06:10;45.25;;;24.45;;
62523;SDS011;53689;56.878;60.672;2023-02-01T08:08:40;44.78;;;24.95;;
62523;SDS011;53689;56.878;60.672;2023-02-01T08:11:08;44.88;;;27.40;;
62523;SDS011;53689;56.878;60.672;2023-02-01T08:13:36;48.22;;;28.50;;
62523;SDS011;53689;56.878;60.672;2023-02-01T08:16:05;47.53;;;27.98;;
62523;SDS011;53689;56.878;60.672;2023-02-01T08:18:36;45.10;;;28.08;;
62523;SDS011;53689;56.878;60.672;2023-02-01T08:21:05;36.75;;;25.55;;
62523;SDS011;53689;56.878;60.672;2023-02-01T08:23:36;40.35;;;24.05;;
62523;SDS011;53689;56.878;60.672;2023-02-01T08:26:08;39.50;;;24.95;;
62523;SDS011;53689;56.878;60.672;2023-02-01T08:28:37;42.00;;;26.95;;
62523;SDS011;53689;56.878;60.672;2023-02-01T08:31:07;39.25;;;25.02;;
62523;SDS011;53689;56.878;60.672;2023-02-01T08:33:36;36.03;;;24.40;;
62523;SDS011;53689;56.878;60.672;2023-02-01T08:36:07;37.33;;;25.33;;
62523;SDS011;53689;56.878;60.672;2023-02-01T08:38:36;41.28;;;25.40;;
62523;SDS011;53689;56.878;60.672;2023-02-01T08:41:08;39.63;;;25.33;;
62523;SDS011;53689;56.878;60.672;2023-02-01T08:43:37;34.38;;;23.75;;
62523;SDS011;53689;56.878;60.672;2023-02-01T08:46:05;37.83;;;23.20;;
62523;SDS011;53689;56.878;60.672;2023-02-01T08:48:34;38.13;;;23.17;;
62523;SDS011;53689;56.878;60.672;2023-02-01T08:51:02;41.15;;;24.67;;
62523;SDS011;53689;56.878;60.672;2023-02-01T08:53:32;34.65;;;22.73;;
62523;SDS011;53689;56.878;60.672;2023-02-01T08:56:00;35.88;;;22.92;;
62523;SDS011;53689;56.878;60.672;2023-02-01T08:58:30;38.63;;;21.83;;
62523;SDS011;53689;56.878;60.672;2023-02-01T09:01:01;31.50;;;20.90;;
62523;SDS011;53689;56.878;60.672;2023-02-01T09:03:30;32.42;;;20.27;;
62523;SDS011;53689;56.878;60.672;2023-02-01T09:06:01;33.53;;;20.80;;
62523;SDS011;53689;56.878;60.672;2023-02-01T09:08:29;31.20;;;20.63;;
62523;SDS011;53689;56.878;60.672;2023-02-01T09:11:00;30.90;;;20.80;;
62523;SDS011;53689;56.878;60.672;2023-02-01T09:13:31;34.25;;;21.25;;
62523;SDS011;53689;56.878;60.672;2023-02-01T09:15:59;32.50;;;19.88;;
62523;SDS011;53689;56.878;60.672;2023-02-01T09:18:28;27.55;;;19.15;;
62523;SDS011;53689;56.878;60.672;2023-02-01T09:20:56;29.95;;;19.10;;
62523;SDS011;53689;56.878;60.672;2023-02-01T09:23:23;30.48;;;19.27;;
62523;SDS011;53689;56.878;60.672;2023-02-01T09:25:52;31.55;;;19.48;;
62523;SDS011;53689;56.878;60.672;2023-02-01T09:28:20;29.25;;;19.98;;
62523;SDS011;53689;56.878;60.672;2023-02-01T09:33:53;37.40;;;24.35;;
62523;SDS011;53689;56.878;60.672;2023-02-01T09:36:21;36.25;;;22.95;;
62523;SDS011;53689;56.878;60.672;2023-02-01T09:39:09;35.90;;;23.15;;
62523;SDS011;53689;56.878;60.672;2023-02-01T09:41:39;32.72;;;22.73;;
62523;SDS011;53689;56.878;60.672;2023-02-01T09:44:22;38.25;;;22.75;;
62523;SDS011;53689;56.878;60.672;2023-02-01T09:47:12;36.67;;;21.90;;
62523;SDS011;53689;56.878;60.672;2023-02-01T09:49:45;35.95;;;22.90;;
62523;SDS011;53689;56.878;60.672;2023-02-01T09:52:23;35.90;;;23.52;;
62523;SDS011;53689;56.878;60.672;2023-02-01T09:54:58;44.90;;;25.25;;
62523;SDS011;53689;56.878;60.672;2023-02-01T09:57:33;46.90;;;24.23;;
62523;SDS011;53689;56.878;60.672;2023-02-01T10:00:16;47.30;;;23.85;;
62523;SDS011;53689;56.878;60.672;2023-02-01T10:02:49;44.50;;;22.92;;
62523;SDS011;53689;56.878;60.672;2023-02-01T10:05:32;45.30;;;23.75;;
62523;SDS011;53689;56.878;60.672;2023-02-01T10:08:14;46.88;;;23.67;;
62523;SDS011;53689;56.878;60.672;2023-02-01T10:10:51;38.40;;;23.00;;
62523;SDS011;53689;56.878;60.672;2023-02-01T10:13:28;46.00;;;24.75;;
62523;SDS011;53689;56.878;60.672;2023-02-01T10:16:16;46.85;;;24.83;;
62523;SDS011;53689;56.878;60.672;2023-02-01T10:19:10;39.05;;;21.92;;
62523;SDS011;53689;56.878;60.672;2023-02-01T10:21:58;41.20;;;22.95;;
62523;SDS011;53689;56.878;60.672;2023-02-01T10:24:34;42.35;;;21.40;;
62523;SDS011;53689;56.878;60.672;2023-02-01T10:27:12;38.42;;;20.80;;
62523;SDS011;53689;56.878;60.672;2023-02-01T10:29:42;45.38;;;21.80;;
62523;SDS011;53689;56.878;60.672;2023-02-01T10:32:13;34.08;;;19.98;;
62523;SDS011;53689;56.878;60.672;2023-02-01T10:34:46;39.38;;;20.27;;
62523;SDS011;53689;56.878;60.672;2023-02-01T10:37:23;35.97;;;19.50;;
62523;SDS011;53689;56.878;60.672;2023-02-01T10:39:55;36.75;;;18.30;;
62523;SDS011;53689;56.878;60.672;2023-02-01T10:42:26;35.47;;;19.42;;
62523;SDS011;53689;56.878;60.672;2023-02-01T10:44:56;35.60;;;19.10;;
62523;SDS011;53689;56.878;60.672;2023-02-01T10:47:29;38.97;;;21.52;;
62523;SDS011;53689;56.878;60.672;2023-02-01T10:50:02;64.32;;;38.83;;
62523;SDS011;53689;56.878;60.672;2023-02-01T10:52:40;37.55;;;23.70;;
62523;SDS011;53689;56.878;60.672;2023-02-01T10:58:15;33.47;;;20.00;;
62523;SDS011;53689;56.878;60.672;2023-02-01T11:00:48;35.45;;;22.98;;
62523;SDS011;53689;56.878;60.672;2023-02-01T11:06:13;34.85;;;18.10;;
62523;SDS011;53689;56.878;60.672;2023-02-01T11:11:17;34.55;;;21.02;;
62523;SDS011;53689;56.878;60.672;2023-02-01T11:13:51;36.83;;;26.20;;
62523;SDS011;53689;56.878;60.672;2023-02-01T11:16:34;33.05;;;20.77;;
62523;SDS011;53689;56.878;60.672;2023-02-01T11:19:03;29.60;;;19.25;;
62523;SDS011;53689;56.878;60.672;2023-02-01T11:21:33;32.80;;;20.33;;
62523;SDS011;53689;56.878;60.672;2023-02-01T11:24:03;28.95;;;19.23;;
62523;SDS011;53689;56.878;60.672;2023-02-01T11:29:01;26.95;;;18.17;;
62523;SDS011;53689;56.878;60.672;2023-02-01T11:31:32;33.70;;;18.73;;
62523;SDS011;53689;56.878;60.672;2023-02-01T11:34:05;28.23;;;19.17;;
62523;SDS011;53689;56.878;60.672;2023-02-01T11:36:37;28.67;;;17.65;;
62523;SDS011;53689;56.878;60.672;2023-02-01T11:39:08;32.05;;;18.88;;
62523;SDS011;53689;56.878;60.672;2023-02-01T11:41:55;27.45;;;16.67;;
62523;SDS011;53689;56.878;60.672;2023-02-01T11:44:28;25.85;;;16.98;;
62523;SDS011;53689;56.878;60.672;2023-02-01T11:49:50;37.10;;;22.00;;
62523;SDS011;53689;56.878;60.672;2023-02-01T11:52:25;31.38;;;21.40;;
62523;SDS011;53689;56.878;60.672;2023-02-01T11:55:14;32.42;;;21.88;;
62523;SDS011;53689;56.878;60.672;2023-02-01T11:58:06;34.40;;;20.20;;
62523;SDS011;53689;56.878;60.672;2023-02-01T12:00:55;33.55;;;21.80;;
62523;SDS011;53689;56.878;60.672;2023-02-01T12:03:38;30.33;;;20.15;;
62523;SDS011;53689;56.878;60.672;2023-02-01T12:06:29;35.97;;;20.75;;
62523;SDS011;53689;56.878;60.672;2023-02-01T12:09:13;34.95;;;21.65;;
62523;SDS011;53689;56.878;60.672;2023-02-01T12:11:53;33.85;;;21.85;;
62523;SDS011;53689;56.878;60.672;2023-02-01T12:14:31;33.95;;;19.98;;
62523;SDS011;53689;56.878;60.672;2023-02-01T12:17:36;26.95;;;18.67;;
62523;SDS011;53689;56.878;60.672;2023-02-01T12:20:26;31.77;;;18.80;;
62523;SDS011;53689;56.878;60.672;2023-02-01T12:23:05;29.33;;;18.50;;
62523;SDS011;53689;56.878;60.672;2023-02-01T12:25:54;25.30;;;17.27;;
62523;SDS011;53689;56.878;60.672;2023-02-01T12:28:42;28.40;;;18.15;;
62523;SDS011;53689;56.878;60.672;2023-02-01T12:31:35;27.38;;;17.33;;
62523;SDS011;53689;56.878;60.672;2023-02-01T12:37:08;26.63;;;17.20;;
62523;SDS011;53689;56.878;60.672;2023-02-01T12:39:46;27.70;;;17.27;;
62523;SDS011;53689;56.878;60.672;2023-02-01T12:42:25;29.52;;;18.02;;
62523;SDS011;53689;56.878;60.672;2023-02-01T12:44:56;27.50;;;16.58;;
62523;SDS011;53689;56.878;60.672;2023-02-01T12:47:32;29.00;;;16.63;;
62523;SDS011;53689;56.878;60.672;2023-02-01T12:50:05;28.98;;;16.88;;
62523;SDS011;53689;56.878;60.672;2023-02-01T12:52:42;30.00;;;16.40;;
62523;SDS011;53689;56.878;60.672;2023-02-01T12:55:16;27.83;;;17.23;;
62523;SDS011;53689;56.878;60.672;2023-02-01T12:57:50;30.73;;;16.27;;
62523;SDS011;53689;56.878;60.672;2023-02-01T13:00:23;24.80;;;15.23;;
62523;SDS011;53689;56.878;60.672;2023-02-01T13:03:00;24.85;;;15.60;;
62523;SDS011;53689;56.878;60.672;2023-02-01T13:05:34;25.77;;;14.15;;
62523;SDS011;53689;56.878;60.672;2023-02-01T13:08:12;24.15;;;14.50;;
62523;SDS011;53689;56.878;60.672;2023-02-01T13:10:45;20.42;;;14.00;;
62523;SDS011;53689;56.878;60.672;2023-02-01T13:13:19;28.83;;;15.05;;
62523;SDS011;53689;56.878;60.672;2023-02-01T13:15:55;26.40;;;15.02;;
62523;SDS011;53689;56.878;60.672;2023-02-01T13:18:32;25.23;;;13.95;;
62523;SDS011;53689;56.878;60.672;2023-02-01T13:21:05;23.38;;;13.75;;
62523;SDS011;53689;56.878;60.672;2023-02-01T13:23:37;23.58;;;13.60;;
62523;SDS011;53689;56.878;60.672;2023-02-01T13:26:06;21.83;;;13.40;;
62523;SDS011;53689;56.878;60.672;2023-02-01T13:28:37;21.50;;;14.15;;
62523;SDS011;53689;56.878;60.672;2023-02-01T13:34:37;22.65;;;13.40;;
62523;SDS011;53689;56.878;60.672;2023-02-01T13:37:20;22.40;;;13.35;;
62523;SDS011;53689;56.878;60.672;2023-02-01T13:40:05;21.67;;;13.25;;
62523;SDS011;53689;56.878;60.672;2023-02-01T13:42:47;23.55;;;13.43;;
62523;SDS011;53689;56.878;60.672;2023-02-01T13:45:20;25.50;;;13.63;;
62523;SDS011;53689;56.878;60.672;2023-02-01T13:47:52;22.17;;;12.90;;
62523;SDS011;53689;56.878;60.672;2023-02-01T13:50:23;23.38;;;13.63;;
62523;SDS011;53689;56.878;60.672;2023-02-01T13:52:55;23.42;;;13.43;;
62523;SDS011;53689;56.878;60.672;2023-02-01T13:55:30;19.45;;;12.13;;
62523;SDS011;53689;56.878;60.672;2023-02-01T13:58:11;21.98;;;12.30;;
62523;SDS011;53689;56.878;60.672;2023-02-01T14:00:44;21.00;;;12.32;;
62523;SDS011;53689;56.878;60.672;2023-02-01T14:03:17;19.13;;;12.73;;
62523;SDS011;53689;56.878;60.672;2023-02-01T14:06:01;20.27;;;12.98;;
62523;SDS011;53689;56.878;60.672;2023-02-01T14:08:41;19.55;;;11.80;;
62523;SDS011;53689;56.878;60.672;2023-02-01T14:14:06;21.15;;;12.07;;
62523;SDS011;53689;56.878;60.672;2023-02-01T14:26:09;17.95;;;11.07;;
62523;SDS011;53689;56.878;60.672;2023-02-01T14:28:41;17.90;;;11.77;;
62523;SDS011;53689;56.878;60.672;2023-02-01T14:31:16;22.58;;;11.65;;
62523;SDS011;53689;56.878;60.672;2023-02-01T14:33:55;17.90;;;11.57;;
62523;SDS011;53689;56.878;60.672;2023-02-01T14:36:25;18.65;;;11.27;;
62523;SDS011;53689;56.878;60.672;2023-02-01T14:39:16;19.10;;;11.73;;
62523;SDS011;53689;56.878;60.672;2023-02-01T14:41:47;19.45;;;11.48;;
62523;SDS011;53689;56.878;60.672;2023-02-01T14:44:29;19.35;;;10.95;;
62523;SDS011;53689;56.878;60.672;2023-02-01T14:47:06;17.58;;;10.80;;
62523;SDS011;53689;56.878;60.672;2023-02-01T14:49:37;18.13;;;11.30;;
62523;SDS011;53689;56.878;60.672;2023-02-01T14:52:11;20.17;;;10.55;;
62523;SDS011;53689;56.878;60.672;2023-02-01T14:54:44;16.38;;;10.50;;
62523;SDS011;53689;56.878;60.672;2023-02-01T14:57:18;16.65;;;10.10;;
62523;SDS011;53689;56.878;60.672;2023-02-01T14:59:52;17.45;;;10.70;;
62523;SDS011;53689;56.878;60.672;2023-02-01T15:02:26;16.48;;;9.75;;
62523;SDS011;53689;56.878;60.672;2023-02-01T15:04:56;16.63;;;10.30;;
62523;SDS011;53689;56.878;60.672;2023-02-01T15:07:24;14.75;;;9.82;;
62523;SDS011;53689;56.878;60.672;2023-02-01T15:09:56;16.77;;;10.38;;
62523;SDS011;53689;56.878;60.672;2023-02-01T15:12:26;20.95;;;9.68;;
62523;SDS011;53689;56.878;60.672;2023-02-01T15:17:39;17.83;;;10.43;;
62523;SDS011;53689;56.878;60.672;2023-02-01T15:20:12;15.63;;;9.63;;
62523;SDS011;53689;56.878;60.672;2023-02-01T15:22:51;13.65;;;8.80;;
62523;SDS011;53689;56.878;60.672;2023-02-01T15:25:23;16.38;;;9.90;;
62523;SDS011;53689;56.878;60.672;2023-02-01T15:27:53;18.83;;;10.45;;
62523;SDS011;53689;56.878;60.672;2023-02-01T15:30:23;14.43;;;10.27;;
62523;SDS011;53689;56.878;60.672;2023-02-01T15:33:03;18.02;;;9.45;;
62523;SDS011;53689;56.878;60.672;2023-02-01T15:35:34;12.90;;;8.90;;